createdAt,value
2022-09-11T00:01:57.464Z,2.17
2022-09-11T00:04:43.451Z,1.92
2022-09-11T00:07:28.865Z,2.00
2022-09-11T00:10:15.097Z,2.03
2022-09-11T00:13:00.464Z,2.08
2022-09-11T00:15:47.149Z,2.20
2022-09-11T00:18:35.953Z,1.90
2022-09-11T00:21:21.852Z,1.80
2022-09-11T00:24:10.965Z,1.85
2022-09-11T00:26:56.226Z,2.05
2022-09-11T00:29:42.311Z,1.90
2022-09-11T00:32:28.214Z,1.55
2022-09-11T00:35:14.093Z,2.10
2022-09-11T00:37:59.653Z,1.92
2022-09-11T00:40:48.535Z,1.98
2022-09-11T00:44:12.672Z,2.00
2022-09-11T00:47:05.842Z,2.10
2022-09-11T00:49:55.454Z,2.00
2022-09-11T00:53:12.893Z,2.03
2022-09-11T00:56:02.208Z,1.95
2022-09-11T00:58:52.452Z,2.35
2022-09-11T01:01:37.999Z,2.20
2022-09-11T01:04:24.725Z,2.20
2022-09-11T01:07:13.457Z,2.05
2022-09-11T01:09:59.950Z,2.03
2022-09-11T01:12:51.457Z,2.22
2022-09-11T01:15:47.459Z,2.05
2022-09-11T01:18:47.617Z,2.45
2022-09-11T01:21:45.787Z,2.00
2022-09-11T01:24:51.516Z,2.45
2022-09-11T01:27:55.001Z,1.85
2022-09-11T01:30:47.479Z,1.75
2022-09-11T01:33:45.997Z,2.10
2022-09-11T01:36:41.010Z,1.75
2022-09-11T01:39:33.894Z,1.80
2022-09-11T01:42:23.177Z,1.95
2022-09-11T01:45:12.724Z,2.05
2022-09-11T01:48:00.169Z,1.83
2022-09-11T01:50:49.792Z,1.60
2022-09-11T01:53:40.475Z,1.63
2022-09-11T01:56:32.101Z,2.10
2022-09-11T01:59:21.761Z,1.85
2022-09-11T02:02:13.547Z,1.65
2022-09-11T02:05:08.100Z,1.90
2022-09-11T02:08:07.424Z,1.65
2022-09-11T02:11:03.484Z,1.60
2022-09-11T02:13:53.660Z,1.90
2022-09-11T02:16:50.249Z,1.95
2022-09-11T02:19:37.403Z,1.70
2022-09-11T02:22:24.746Z,1.42
2022-09-11T02:25:11.526Z,2.03
2022-09-11T02:27:57.448Z,1.83
2022-09-11T02:30:44.427Z,1.75
2022-09-11T02:33:36.170Z,1.45
2022-09-11T02:36:54.840Z,1.50
2022-09-11T02:39:41.316Z,1.80
2022-09-11T02:42:50.811Z,1.80
2022-09-11T02:46:12.372Z,1.45
2022-09-11T02:49:19.702Z,1.90
2022-09-11T02:52:20.810Z,1.73
2022-09-11T02:55:25.694Z,1.50
2022-09-11T02:58:26.916Z,1.60
2022-09-11T03:01:14.035Z,1.50
2022-09-11T03:04:00.196Z,1.60
2022-09-11T03:06:47.469Z,2.13
2022-09-11T03:09:35.000Z,2.30
2022-09-11T03:12:27.621Z,2.15
2022-09-11T03:15:15.936Z,2.40
2022-09-11T03:18:01.568Z,2.58
2022-09-11T03:20:47.375Z,3.00
2022-09-11T03:23:33.269Z,3.20
2022-09-11T03:26:19.142Z,2.75
2022-09-11T03:29:08.537Z,3.45
2022-09-11T03:31:55.028Z,3.15
2022-09-11T03:34:40.884Z,3.53
2022-09-11T03:37:27.164Z,3.08
2022-09-11T03:40:14.799Z,2.47
2022-09-11T03:43:00.551Z,2.58
2022-09-11T03:45:51.926Z,2.38
2022-09-11T03:48:38.133Z,2.55
2022-09-11T03:51:23.778Z,2.65
2022-09-11T03:54:09.960Z,2.30
2022-09-11T03:56:55.525Z,2.38
2022-09-11T03:59:41.470Z,2.35
2022-09-11T04:02:28.073Z,2.40
2022-09-11T04:05:13.723Z,2.63
2022-09-11T04:07:59.754Z,2.35
2022-09-11T04:10:47.122Z,2.47
2022-09-11T04:13:36.138Z,2.88
2022-09-11T04:16:23.751Z,2.10
2022-09-11T04:19:13.343Z,2.20
2022-09-11T04:22:01.203Z,2.35
2022-09-11T04:24:46.996Z,2.50
2022-09-11T04:27:33.476Z,2.95
2022-09-11T04:30:19.903Z,2.55
2022-09-11T04:33:07.185Z,2.28
2022-09-11T04:35:52.753Z,2.70
2022-09-11T04:38:41.489Z,2.22
2022-09-11T04:41:30.149Z,2.92
2022-09-11T04:44:20.747Z,2.75
2022-09-11T04:47:06.736Z,2.47
2022-09-11T04:49:52.841Z,2.45
2022-09-11T04:52:39.298Z,2.42
2022-09-11T04:55:27.196Z,2.60
2022-09-11T04:58:14.023Z,2.33
2022-09-11T05:01:00.855Z,2.55
2022-09-11T05:03:46.713Z,3.00
2022-09-11T05:06:32.777Z,3.40
2022-09-11T05:09:22.723Z,3.85
2022-09-11T05:12:10.655Z,2.85
2022-09-11T05:14:56.860Z,2.97
2022-09-11T05:17:42.575Z,3.33
2022-09-11T05:20:31.028Z,2.75
2022-09-11T05:23:16.656Z,2.65
2022-09-11T05:26:04.112Z,2.75
2022-09-11T05:28:55.754Z,2.45
2022-09-11T05:31:42.768Z,2.30
2022-09-11T05:34:29.924Z,2.00
2022-09-11T05:37:17.181Z,1.92
2022-09-11T05:40:05.286Z,2.03
2022-09-11T05:42:52.745Z,2.00
2022-09-11T05:45:38.773Z,1.95
2022-09-11T05:48:25.558Z,2.03
2022-09-11T05:51:19.238Z,2.08
2022-09-11T05:54:05.353Z,2.42
2022-09-11T05:56:51.909Z,2.10
2022-09-11T05:59:42.478Z,1.90
2022-09-11T06:02:28.540Z,2.05
2022-09-11T06:05:15.381Z,2.03
2022-09-11T06:08:02.330Z,1.98
2022-09-11T06:10:48.029Z,1.98
2022-09-11T06:13:40.729Z,1.60
2022-09-11T06:16:27.147Z,1.67
2022-09-11T06:19:17.664Z,2.25
2022-09-11T06:22:04.742Z,2.17
2022-09-11T06:24:55.350Z,1.63
2022-09-11T06:27:41.729Z,2.13
2022-09-11T06:30:27.707Z,2.00
2022-09-11T06:33:14.665Z,1.42
2022-09-11T06:36:04.058Z,2.10
2022-09-11T06:38:57.685Z,2.00
2022-09-11T06:41:45.649Z,1.98
2022-09-11T06:44:33.788Z,1.70
2022-09-11T06:47:21.087Z,1.95
2022-09-11T06:50:07.593Z,1.90
2022-09-11T06:53:02.668Z,2.05
2022-09-11T06:55:49.628Z,2.05
2022-09-11T06:58:36.789Z,1.70
2022-09-11T07:01:23.542Z,1.50
2022-09-11T07:04:14.794Z,2.00
2022-09-11T07:07:02.154Z,1.77
2022-09-11T07:09:48.499Z,1.67
2022-09-11T07:12:35.984Z,1.80
2022-09-11T07:15:22.201Z,1.98
2022-09-11T07:18:08.158Z,2.05
2022-09-11T07:20:54.212Z,2.00
2022-09-11T07:23:41.354Z,1.98
2022-09-11T07:26:29.804Z,2.10
2022-09-11T07:29:22.431Z,2.20
2022-09-11T07:32:08.960Z,2.60
2022-09-11T07:34:54.898Z,2.50
2022-09-11T07:37:41.057Z,2.50
2022-09-11T07:40:29.073Z,2.63
2022-09-11T07:43:18.354Z,3.25
2022-09-11T07:46:05.452Z,2.53
2022-09-11T07:48:54.681Z,2.22
2022-09-11T07:51:40.532Z,2.47
2022-09-11T07:54:29.372Z,2.00
2022-09-11T07:57:15.755Z,2.97
2022-09-11T08:00:01.916Z,2.25
2022-09-11T08:02:54.265Z,2.30
2022-09-11T08:05:48.612Z,2.70
2022-09-11T08:08:35.443Z,2.17
2022-09-11T08:11:22.317Z,2.83
2022-09-11T08:14:08.968Z,2.33
2022-09-11T08:16:56.932Z,2.90
2022-09-11T08:19:45.759Z,3.00
2022-09-11T08:22:33.258Z,2.72
2022-09-11T08:25:20.944Z,2.78
2022-09-11T08:28:07.557Z,2.75
2022-09-11T08:30:58.957Z,2.47
2022-09-11T08:33:45.807Z,2.80
2022-09-11T08:36:31.661Z,3.20
2022-09-11T08:39:18.051Z,2.72
2022-09-11T08:42:16.117Z,2.63
2022-09-11T08:45:07.518Z,5.53
2022-09-11T08:47:58.270Z,5.78
2022-09-11T08:50:44.300Z,5.18
2022-09-11T08:53:34.231Z,4.50
2022-09-11T08:56:26.166Z,4.90
2022-09-11T08:59:34.793Z,5.40
2022-09-11T09:02:35.530Z,8.10
2022-09-11T09:05:35.452Z,6.10
2022-09-11T09:08:50.226Z,5.60
2022-09-11T09:14:37.972Z,4.95
2022-09-11T09:17:33.689Z,5.20
2022-09-11T09:20:29.285Z,5.25
2022-09-11T09:23:21.469Z,4.93
2022-09-11T09:26:17.221Z,5.07
2022-09-11T09:29:09.292Z,4.90
2022-09-11T09:32:04.418Z,4.90
2022-09-11T09:35:00.652Z,5.75
2022-09-11T09:37:52.133Z,4.40
2022-09-11T09:40:39.834Z,4.40
2022-09-11T09:43:50.537Z,5.13
2022-09-11T09:46:50.801Z,3.65
2022-09-11T09:49:37.504Z,3.75
2022-09-11T09:52:25.831Z,3.88
2022-09-11T09:55:18.545Z,3.80
2022-09-11T09:58:04.043Z,3.63
2022-09-11T10:00:50.009Z,3.20
2022-09-11T10:03:35.911Z,4.00
2022-09-11T10:06:22.098Z,4.68
2022-09-11T10:09:23.008Z,4.43
2022-09-11T10:12:25.722Z,4.68
2022-09-11T10:15:20.332Z,5.28
2022-09-11T10:18:22.392Z,5.43
2022-09-11T10:21:29.709Z,4.72
2022-09-11T10:24:18.851Z,4.32
2022-09-11T10:27:04.976Z,3.75
2022-09-11T10:29:51.185Z,3.83
2022-09-11T10:32:38.637Z,4.03
2022-09-11T10:35:29.430Z,4.13
2022-09-11T10:38:18.376Z,5.82
2022-09-11T10:41:15.423Z,3.95
2022-09-11T10:44:03.111Z,3.42
2022-09-11T10:47:06.148Z,3.10
2022-09-11T10:50:17.017Z,3.50
2022-09-11T10:53:15.369Z,3.67
2022-09-11T10:56:03.571Z,4.35
2022-09-11T10:58:55.075Z,4.63
2022-09-11T11:01:40.969Z,3.72
2022-09-11T11:04:31.823Z,4.47
2022-09-11T11:07:40.625Z,3.45
2022-09-11T11:10:27.062Z,3.30
2022-09-11T11:13:34.053Z,3.78
2022-09-11T11:16:47.059Z,3.20
2022-09-11T11:19:57.001Z,3.53
2022-09-11T11:23:20.225Z,3.55
2022-09-11T11:26:24.192Z,3.03
2022-09-11T11:29:10.135Z,2.67
2022-09-11T11:32:16.654Z,3.30
2022-09-11T11:35:37.289Z,2.90
2022-09-11T11:38:34.280Z,4.32
2022-09-11T11:41:34.343Z,3.47
2022-09-11T11:44:33.905Z,3.15
2022-09-11T11:47:25.314Z,4.40
2022-09-11T11:50:18.561Z,3.70
2022-09-11T11:53:31.273Z,3.47
2022-09-11T11:56:35.222Z,3.05
2022-09-11T11:59:47.372Z,3.88
2022-09-11T12:02:56.516Z,4.22
2022-09-11T12:05:42.543Z,4.97
2022-09-11T12:08:28.725Z,3.63
2022-09-11T12:11:18.544Z,3.60
2022-09-11T12:14:07.216Z,2.97
2022-09-11T12:16:52.977Z,3.45
2022-09-11T12:19:58.797Z,3.42
2022-09-11T12:22:49.762Z,2.70
2022-09-11T12:25:35.773Z,3.60
2022-09-11T12:28:28.110Z,2.42
2022-09-11T12:31:18.234Z,3.63
2022-09-11T12:34:05.445Z,2.88
2022-09-11T12:37:01.415Z,3.25
2022-09-11T12:40:16.815Z,3.42
2022-09-11T12:43:20.541Z,2.28
2022-09-11T12:46:12.371Z,1.95
2022-09-11T12:49:20.985Z,2.65
2022-09-11T12:52:05.819Z,2.38
2022-09-11T12:54:52.753Z,2.10
2022-09-11T12:57:40.776Z,1.90
2022-09-11T13:00:40.897Z,2.03
2022-09-11T13:03:28.109Z,2.10
2022-09-11T13:06:14.366Z,1.60
2022-09-11T13:09:02.093Z,2.08
2022-09-11T13:11:56.973Z,1.70
2022-09-11T13:14:57.039Z,2.28
2022-09-11T13:17:46.838Z,2.45
2022-09-11T13:20:32.881Z,1.90
2022-09-11T13:23:18.598Z,1.80
2022-09-11T13:26:07.838Z,1.85
2022-09-11T13:28:56.416Z,1.48
2022-09-11T13:31:43.456Z,1.55
2022-09-11T13:34:30.471Z,1.70
2022-09-11T13:37:36.964Z,1.50
2022-09-11T13:40:28.946Z,1.40
2022-09-11T13:43:22.270Z,1.45
2022-09-11T13:46:17.006Z,1.83
2022-09-11T13:49:06.553Z,1.42
2022-09-11T13:51:52.450Z,1.70
2022-09-11T13:54:45.494Z,1.40
2022-09-11T13:57:32.052Z,1.65
2022-09-11T14:00:44.912Z,1.67
2022-09-11T14:03:33.230Z,1.60
2022-09-11T14:06:20.704Z,1.67
2022-09-11T14:09:06.500Z,1.75
2022-09-11T14:11:52.808Z,2.30
2022-09-11T14:14:38.902Z,1.80
2022-09-11T14:17:25.757Z,1.80
2022-09-11T14:20:20.058Z,1.83
2022-09-11T14:23:06.708Z,1.88
2022-09-11T14:26:14.675Z,1.45
2022-09-11T14:29:05.779Z,1.98
2022-09-11T14:31:52.804Z,1.60
2022-09-11T14:34:38.434Z,1.80
2022-09-11T14:37:27.628Z,1.88
2022-09-11T14:40:19.867Z,2.00
2022-09-11T14:43:05.845Z,1.70
2022-09-11T14:45:51.509Z,1.75
2022-09-11T14:48:37.131Z,1.27
2022-09-11T14:51:22.997Z,2.00
2022-09-11T14:54:15.397Z,2.05
2022-09-11T14:57:00.857Z,1.80
2022-09-11T14:59:46.697Z,1.75
2022-09-11T15:02:32.368Z,2.22
2022-09-11T15:05:21.681Z,2.10
2022-09-11T15:08:07.660Z,2.55
2022-09-11T15:10:53.900Z,2.25
2022-09-11T15:13:57.883Z,2.20
2022-09-11T15:16:46.728Z,2.00
2022-09-11T15:19:35.190Z,2.10
2022-09-11T15:22:20.874Z,1.80
2022-09-11T15:25:07.842Z,2.00
2022-09-11T15:27:53.833Z,1.75
2022-09-11T15:30:39.725Z,2.30
2022-09-11T15:33:29.789Z,2.08
2022-09-11T15:36:15.925Z,2.78
2022-09-11T15:39:03.616Z,2.03
2022-09-11T15:41:49.432Z,1.65
2022-09-11T15:44:36.144Z,1.90
2022-09-11T15:47:22.473Z,1.88
2022-09-11T15:50:09.137Z,2.92
2022-09-11T15:52:54.694Z,1.92
2022-09-11T15:55:40.588Z,6.50
2022-09-11T15:58:26.920Z,3.03
2022-09-11T16:01:18.245Z,3.25
2022-09-11T16:04:09.397Z,2.70
2022-09-11T16:06:55.205Z,2.25
2022-09-11T16:09:40.944Z,5.00
2022-09-11T16:12:28.061Z,3.15
2022-09-11T16:15:13.739Z,2.53
2022-09-11T16:17:59.596Z,2.33
2022-09-11T16:20:45.141Z,2.00
2022-09-11T16:23:30.854Z,1.50
2022-09-11T16:26:20.900Z,1.48
2022-09-11T16:29:08.589Z,1.85
2022-09-11T16:31:55.452Z,1.80
2022-09-11T16:34:42.247Z,2.40
2022-09-11T16:37:28.785Z,1.60
2022-09-11T16:40:15.038Z,1.83
2022-09-11T16:43:02.169Z,1.85
2022-09-11T16:45:52.627Z,1.60
2022-09-11T16:48:39.088Z,1.77
2022-09-11T16:51:25.234Z,2.10
2022-09-11T16:54:13.187Z,1.80
2022-09-11T16:56:59.241Z,1.85
2022-09-11T16:59:45.136Z,1.80
2022-09-11T17:02:31.384Z,1.80
2022-09-11T17:05:17.575Z,1.85
2022-09-11T17:08:03.765Z,1.98
2022-09-11T17:10:54.351Z,1.95
2022-09-11T17:13:44.246Z,1.98
2022-09-11T17:16:31.992Z,1.88
2022-09-11T17:19:17.896Z,2.10
2022-09-11T17:22:03.979Z,1.98
2022-09-11T17:24:49.725Z,2.30
2022-09-11T17:27:38.604Z,1.90
2022-09-11T17:30:24.385Z,2.17
2022-09-11T17:33:10.177Z,2.25
2022-09-11T17:35:57.066Z,1.88
2022-09-11T17:38:43.804Z,2.00
2022-09-11T17:41:29.764Z,2.00
2022-09-11T17:44:16.952Z,2.05
2022-09-11T17:47:02.546Z,2.30
2022-09-11T17:49:50.127Z,2.15
2022-09-11T17:52:36.819Z,2.10
2022-09-11T17:55:22.706Z,2.63
2022-09-11T17:58:08.759Z,2.50
2022-09-11T18:00:54.696Z,2.30
2022-09-11T18:03:40.584Z,2.33
2022-09-11T18:06:36.396Z,2.30
2022-09-11T18:09:22.131Z,2.60
2022-09-11T18:12:08.013Z,2.55
2022-09-11T18:14:55.973Z,2.80
2022-09-11T18:17:41.898Z,3.00
2022-09-11T18:20:27.962Z,2.60
2022-09-11T18:23:15.172Z,3.13
2022-09-11T18:26:01.066Z,2.40
2022-09-11T18:28:46.900Z,2.53
2022-09-11T18:31:39.803Z,3.22
2022-09-11T18:34:27.912Z,3.22
2022-09-11T18:37:13.504Z,3.35
2022-09-11T18:40:00.958Z,2.88
2022-09-11T18:42:46.840Z,2.83
2022-09-11T18:45:35.428Z,2.90
2022-09-11T18:48:21.854Z,2.80
2022-09-11T18:51:09.185Z,2.83
2022-09-11T18:53:55.344Z,2.88
2022-09-11T18:56:42.207Z,2.50
2022-09-11T18:59:27.953Z,2.83
2022-09-11T19:02:13.645Z,2.92
2022-09-11T19:05:00.197Z,3.72
2022-09-11T19:07:48.205Z,3.30
2022-09-11T19:10:34.125Z,3.40
2022-09-11T19:13:20.617Z,2.88
2022-09-11T19:16:06.921Z,2.50
2022-09-11T19:18:52.559Z,2.75
2022-09-11T19:21:38.859Z,2.92
2022-09-11T19:24:28.176Z,3.22
2022-09-11T19:27:16.578Z,3.25
2022-09-11T19:30:02.318Z,3.53
2022-09-11T19:32:48.637Z,3.05
2022-09-11T19:35:34.116Z,2.90
2022-09-11T19:38:20.960Z,2.88
2022-09-11T19:41:10.560Z,2.83
2022-09-11T19:44:00.279Z,3.20
2022-09-11T19:46:49.038Z,3.00
2022-09-11T19:49:34.883Z,3.13
2022-09-11T19:52:20.555Z,2.65
2022-09-11T19:55:06.624Z,3.58
2022-09-11T19:57:52.626Z,3.53
2022-09-11T20:00:38.454Z,3.10
2022-09-11T20:03:24.387Z,2.80
2022-09-11T20:06:10.885Z,3.00
2022-09-11T20:09:13.803Z,3.15
2022-09-11T20:12:04.349Z,3.30
2022-09-11T20:14:50.321Z,3.00
2022-09-11T20:17:36.141Z,3.03
2022-09-11T20:20:21.896Z,2.78
2022-09-11T20:23:07.997Z,3.13
2022-09-11T20:25:53.596Z,2.63
2022-09-11T20:28:39.957Z,3.05
2022-09-11T20:31:31.523Z,2.90
2022-09-11T20:34:18.906Z,2.95
2022-09-11T20:37:09.934Z,3.47
2022-09-11T20:39:55.709Z,2.85
2022-09-11T20:42:41.942Z,2.90
2022-09-11T20:45:27.833Z,2.92
2022-09-11T20:48:13.534Z,2.90
2022-09-11T20:51:10.555Z,2.67
2022-09-11T20:53:56.311Z,2.47
2022-09-11T20:56:42.513Z,2.80
2022-09-11T20:59:27.990Z,2.90
2022-09-11T21:02:14.768Z,2.97
2022-09-11T21:05:00.767Z,2.97
2022-09-11T21:07:46.272Z,2.97
2022-09-11T21:10:35.899Z,3.15
2022-09-11T21:13:21.750Z,3.05
2022-09-11T21:16:12.912Z,2.65
2022-09-11T21:19:00.287Z,2.95
2022-09-11T21:21:46.296Z,3.20
2022-09-11T21:24:31.780Z,2.92
2022-09-11T21:27:17.853Z,3.03
2022-09-11T21:30:04.158Z,3.17
2022-09-11T21:32:49.925Z,3.28
2022-09-11T21:35:37.445Z,3.15
2022-09-11T21:38:25.518Z,3.05
2022-09-11T21:41:12.902Z,3.00
2022-09-11T21:43:58.689Z,2.60
2022-09-11T21:46:44.516Z,3.00
2022-09-11T21:49:30.337Z,3.38
2022-09-11T21:52:16.202Z,2.80
2022-09-11T21:55:02.022Z,2.80
2022-09-11T21:57:47.818Z,2.72
2022-09-11T22:00:42.546Z,3.30
2022-09-11T22:03:29.020Z,2.80
2022-09-11T22:06:14.854Z,2.80
2022-09-11T22:09:00.965Z,2.60
2022-09-11T22:11:47.579Z,2.67
2022-09-11T22:14:33.815Z,2.92
2022-09-11T22:17:19.636Z,2.63
2022-09-11T22:20:05.833Z,2.83
2022-09-11T22:22:53.496Z,2.83
2022-09-11T22:25:40.238Z,2.80
2022-09-11T22:28:26.347Z,2.20
2022-09-11T22:31:15.247Z,3.10
2022-09-11T22:34:01.108Z,2.90
2022-09-11T22:36:47.074Z,2.75
2022-09-11T22:39:32.627Z,2.85
2022-09-11T22:42:19.951Z,2.70
2022-09-11T22:45:06.381Z,2.72
2022-09-11T22:47:52.058Z,3.00
2022-09-11T22:50:37.915Z,3.30
2022-09-11T22:53:29.047Z,3.30
2022-09-11T22:56:15.316Z,3.30
2022-09-11T22:59:00.837Z,3.53
2022-09-11T23:01:46.816Z,3.97
2022-09-11T23:04:33.109Z,3.70
2022-09-11T23:07:18.785Z,2.97
2022-09-11T23:10:05.197Z,3.20
2022-09-11T23:12:51.914Z,3.20
2022-09-11T23:15:37.796Z,3.33
2022-09-11T23:18:25.274Z,3.30
2022-09-11T23:21:11.272Z,3.08
2022-09-11T23:23:58.793Z,3.15
2022-09-11T23:26:45.270Z,2.65
2022-09-11T23:29:31.007Z,2.75
2022-09-11T23:32:16.890Z,2.83
2022-09-11T23:35:02.891Z,2.90
2022-09-11T23:37:48.606Z,2.90
2022-09-11T23:40:34.886Z,2.80
2022-09-11T23:43:20.313Z,2.78
2022-09-11T23:46:07.076Z,2.67
2022-09-11T23:48:52.889Z,2.83
2022-09-11T23:51:38.891Z,2.75
2022-09-11T23:54:24.304Z,3.08
2022-09-11T23:57:09.961Z,3.10
2022-09-11T23:59:55.317Z,2.47
